createdAt,value
2023-01-21T00:05:09.623Z,12.13
2023-01-21T00:11:14.744Z,13.52
2023-01-21T00:17:19.595Z,13.35
2023-01-21T00:23:22.998Z,13.93
2023-01-21T00:29:26.534Z,13.52
2023-01-21T00:35:31.396Z,15.43
2023-01-21T00:41:34.772Z,15.07
2023-01-21T00:47:38.113Z,15.45
2023-01-21T00:53:43.403Z,15.55
2023-01-21T00:59:47.758Z,16.00
2023-01-21T01:05:51.190Z,14.50
2023-01-21T01:11:56.012Z,16.85
2023-01-21T01:18:00.158Z,16.63
2023-01-21T01:24:03.532Z,16.65
2023-01-21T01:30:09.724Z,16.33
2023-01-21T01:36:14.313Z,15.80
2023-01-21T01:42:17.721Z,16.83
2023-01-21T01:48:24.450Z,17.33
2023-01-21T01:54:30.531Z,17.83
2023-01-21T02:00:34.190Z,17.23
2023-01-21T02:06:39.794Z,17.33
2023-01-21T02:12:44.345Z,17.83
2023-01-21T02:18:51.888Z,17.55
2023-01-21T02:25:13.807Z,16.75
2023-01-21T02:31:29.534Z,17.92
2023-01-21T02:37:37.300Z,16.70
2023-01-21T02:43:45.302Z,17.47
2023-01-21T02:49:51.890Z,18.50
2023-01-21T02:55:57.638Z,18.20
2023-01-21T03:02:06.162Z,17.55
2023-01-21T03:08:13.357Z,17.80
2023-01-21T03:14:40.383Z,18.10
2023-01-21T03:20:45.448Z,18.47
2023-01-21T03:26:51.517Z,17.17
2023-01-21T03:32:57.435Z,17.50
2023-01-21T03:39:01.709Z,18.63
2023-01-21T03:45:05.473Z,17.90
2023-01-21T03:51:11.874Z,18.37
2023-01-21T03:57:15.650Z,17.65
2023-01-21T04:03:19.037Z,18.67
2023-01-21T04:09:23.787Z,18.50
2023-01-21T04:15:27.173Z,17.13
2023-01-21T04:21:30.564Z,17.63
2023-01-21T04:27:35.292Z,16.73
2023-01-21T04:33:38.744Z,17.20
2023-01-21T04:39:42.147Z,17.48
2023-01-21T04:45:46.955Z,17.77
2023-01-21T04:51:50.541Z,18.73
2023-01-21T04:57:53.911Z,17.13
2023-01-21T05:03:58.676Z,19.10
2023-01-21T05:10:03.127Z,18.27
2023-01-21T05:16:08.514Z,19.17
2023-01-21T05:22:13.399Z,18.57
2023-01-21T05:28:16.788Z,18.53
2023-01-21T05:34:20.186Z,20.03
2023-01-21T05:40:25.021Z,19.57
2023-01-21T05:46:28.622Z,19.67
2023-01-21T05:52:32.123Z,19.93
2023-01-21T05:58:36.851Z,20.70
2023-01-21T06:04:40.220Z,19.10
2023-01-21T06:10:43.643Z,19.33
2023-01-21T06:16:48.413Z,20.47
2023-01-21T06:22:51.851Z,19.37
2023-01-21T06:28:57.088Z,19.33
2023-01-21T06:35:02.206Z,19.60
2023-01-21T06:41:05.734Z,18.47
2023-01-21T06:47:09.461Z,19.27
2023-01-21T06:53:14.492Z,18.43
2023-01-21T06:59:17.972Z,19.17
2023-01-21T07:05:21.534Z,19.70
2023-01-21T07:11:26.394Z,17.93
2023-01-21T07:17:29.858Z,18.73
2023-01-21T07:23:33.299Z,19.00
2023-01-21T07:29:38.096Z,19.43
2023-01-21T07:35:41.536Z,19.53
2023-01-21T07:41:44.966Z,18.83
2023-01-21T07:47:50.541Z,18.67
2023-01-21T07:53:54.064Z,18.80
2023-01-21T07:59:57.719Z,18.27
2023-01-21T08:06:02.481Z,18.53
2023-01-21T08:12:06.117Z,18.10
2023-01-21T08:18:09.524Z,17.73
2023-01-21T08:24:14.351Z,18.77
2023-01-21T08:30:18.122Z,19.30
2023-01-21T08:36:21.824Z,18.83
2023-01-21T08:42:26.619Z,18.07
2023-01-21T08:48:30.119Z,18.40
2023-01-21T08:54:33.649Z,18.30
2023-01-21T09:00:38.452Z,17.73
2023-01-21T09:06:41.896Z,19.40
2023-01-21T09:12:45.561Z,18.60
2023-01-21T09:18:50.530Z,18.17
2023-01-21T09:24:53.993Z,19.33
2023-01-21T09:30:58.780Z,20.13
2023-01-21T09:37:05.112Z,20.07
2023-01-21T09:43:13.463Z,19.83
2023-01-21T09:49:19.568Z,19.33
2023-01-21T09:55:26.047Z,18.83
2023-01-21T10:01:31.747Z,21.57
2023-01-21T10:07:36.513Z,19.95
2023-01-21T10:13:46.308Z,19.48
2023-01-21T10:19:52.128Z,21.40
2023-01-21T10:25:56.176Z,19.05
2023-01-21T10:32:03.460Z,20.00
2023-01-21T10:38:11.534Z,19.85
2023-01-21T10:44:19.421Z,20.20
2023-01-21T10:50:32.520Z,18.30
2023-01-21T10:56:41.606Z,18.90
2023-01-21T11:02:50.392Z,20.13
2023-01-21T11:08:57.811Z,20.20
2023-01-21T11:15:03.927Z,19.83
2023-01-21T11:21:14.006Z,20.25
2023-01-21T11:27:22.851Z,17.73
2023-01-21T11:33:27.436Z,17.00
2023-01-21T11:39:31.854Z,17.65
2023-01-21T11:45:37.725Z,15.98
2023-01-21T11:51:42.306Z,16.75
2023-01-21T11:57:50.106Z,16.05
2023-01-21T12:03:56.584Z,16.52
2023-01-21T12:10:09.125Z,17.10
2023-01-21T12:16:33.451Z,14.57
2023-01-21T12:22:45.167Z,14.38
2023-01-21T12:28:57.665Z,13.60
2023-01-21T12:35:04.175Z,14.15
2023-01-21T12:41:13.546Z,13.93
2023-01-21T12:47:21.543Z,13.60
2023-01-21T12:53:29.245Z,11.45
2023-01-21T12:59:35.525Z,12.38
2023-01-21T13:05:43.456Z,13.73
2023-01-21T13:11:51.537Z,14.82
2023-01-21T13:17:59.154Z,15.57
2023-01-21T13:24:08.253Z,14.02
2023-01-21T13:30:16.587Z,13.55
2023-01-21T13:36:37.639Z,14.35
2023-01-21T13:42:45.569Z,14.80
2023-01-21T13:48:57.437Z,14.70
2023-01-21T13:55:10.161Z,15.05
2023-01-21T14:01:15.775Z,16.63
2023-01-21T14:07:20.732Z,15.50
2023-01-21T14:13:34.900Z,15.68
2023-01-21T14:19:48.574Z,15.13
2023-01-21T14:26:00.123Z,13.73
2023-01-21T14:32:07.441Z,15.35
2023-01-21T14:38:14.569Z,15.48
2023-01-21T14:44:36.849Z,14.88
2023-01-21T14:50:54.964Z,13.77
2023-01-21T14:57:10.227Z,13.63
2023-01-21T15:03:23.033Z,13.88
2023-01-21T15:09:30.364Z,11.15
2023-01-21T15:15:37.056Z,11.57
2023-01-21T15:21:44.973Z,12.55
2023-01-21T15:28:07.064Z,13.95
2023-01-21T15:34:16.189Z,13.85
2023-01-21T15:40:21.104Z,13.90
2023-01-21T15:46:28.694Z,12.27
2023-01-21T15:52:41.416Z,11.13
2023-01-21T15:58:49.705Z,11.18
2023-01-21T16:05:05.348Z,11.07
2023-01-21T16:11:18.044Z,11.30
2023-01-21T16:17:24.279Z,11.20
2023-01-21T16:23:32.629Z,13.80
2023-01-21T16:29:41.345Z,13.50
2023-01-21T16:35:45.979Z,11.82
2023-01-21T16:42:01.337Z,11.88
2023-01-21T16:48:06.259Z,11.63
2023-01-21T16:54:22.307Z,12.65
2023-01-21T17:00:29.408Z,12.80
2023-01-21T17:06:34.300Z,13.55
2023-01-21T17:12:38.569Z,13.55
2023-01-21T17:18:43.253Z,13.23
2023-01-21T17:24:55.419Z,13.40
2023-01-21T17:31:23.349Z,14.35
2023-01-21T17:37:46.419Z,13.85
2023-01-21T17:43:52.218Z,14.18
2023-01-21T17:49:59.245Z,14.68
2023-01-21T17:56:04.604Z,19.57
2023-01-21T18:02:11.982Z,17.88
2023-01-21T18:08:16.185Z,18.15
2023-01-21T18:14:20.641Z,18.25
2023-01-21T18:20:26.524Z,18.30
2023-01-21T18:26:31.108Z,17.08
2023-01-21T18:32:34.645Z,16.13
2023-01-21T18:38:41.281Z,20.42
2023-01-21T18:44:44.892Z,28.65
2023-01-21T18:50:48.443Z,20.80
2023-01-21T18:56:53.474Z,17.92
2023-01-21T19:02:57.515Z,17.83
2023-01-21T19:09:01.108Z,19.57
2023-01-21T19:15:08.155Z,18.87
2023-01-21T19:21:11.675Z,20.37
2023-01-21T19:27:17.686Z,23.27
2023-01-21T19:33:22.703Z,27.67
2023-01-21T19:39:26.499Z,21.47
2023-01-21T19:45:30.439Z,18.17
2023-01-21T19:51:35.342Z,17.67
2023-01-21T19:57:41.108Z,19.47
2023-01-21T20:03:58.755Z,20.03
2023-01-21T20:10:12.232Z,20.27
2023-01-21T20:16:17.125Z,19.97
2023-01-21T20:22:20.699Z,20.17
2023-01-21T20:28:26.850Z,18.73
2023-01-21T20:34:32.038Z,20.10
2023-01-21T20:40:35.413Z,22.20
2023-01-21T20:46:41.155Z,23.27
2023-01-21T20:52:44.556Z,22.33
2023-01-21T20:58:48.895Z,21.07
2023-01-21T21:04:53.767Z,22.27
2023-01-21T21:10:57.139Z,19.20
2023-01-21T21:17:00.580Z,20.40
2023-01-21T21:23:05.377Z,20.97
2023-01-21T21:29:11.686Z,19.83
2023-01-21T21:35:21.591Z,18.17
2023-01-21T21:41:44.941Z,20.27
2023-01-21T21:48:05.030Z,19.93
2023-01-21T21:54:10.500Z,19.87
2023-01-21T22:00:16.332Z,20.20
2023-01-21T22:06:20.451Z,20.50
2023-01-21T22:12:23.883Z,20.60
2023-01-21T22:18:29.589Z,18.87
2023-01-21T22:24:33.013Z,17.57
2023-01-21T22:30:36.528Z,18.20
2023-01-21T22:36:42.182Z,17.63
2023-01-21T22:42:45.553Z,18.40
2023-01-21T22:48:48.965Z,19.33
2023-01-21T22:54:53.818Z,19.50
2023-01-21T23:00:57.919Z,18.63
2023-01-21T23:07:01.766Z,19.03
2023-01-21T23:13:06.829Z,18.03
2023-01-21T23:19:10.427Z,17.80
2023-01-21T23:25:14.547Z,17.13
2023-01-21T23:31:19.937Z,16.40
2023-01-21T23:37:23.347Z,15.57
2023-01-21T23:43:27.430Z,15.70
2023-01-21T23:49:32.179Z,15.90
2023-01-21T23:55:35.633Z,15.60
